createdAt,value
2022-10-30T00:00:48.942Z,3.30
2022-10-30T00:03:17.018Z,3.33
2022-10-30T00:05:45.271Z,2.78
2022-10-30T00:08:13.851Z,2.88
2022-10-30T00:10:41.252Z,2.97
2022-10-30T00:13:08.779Z,3.03
2022-10-30T00:15:35.455Z,2.65
2022-10-30T00:18:02.710Z,3.60
2022-10-30T00:20:29.534Z,3.00
2022-10-30T00:22:56.527Z,2.80
2022-10-30T00:25:23.905Z,2.50
2022-10-30T00:27:50.610Z,2.60
2022-10-30T00:30:18.934Z,2.80
2022-10-30T00:32:45.763Z,2.78
2022-10-30T00:35:12.651Z,2.83
2022-10-30T00:37:39.494Z,2.50
2022-10-30T00:40:06.966Z,2.63
2022-10-30T00:42:33.807Z,2.40
2022-10-30T00:45:00.703Z,2.60
2022-10-30T00:47:38.079Z,2.85
2022-10-30T00:50:07.853Z,2.80
2022-10-30T00:52:39.222Z,2.95
2022-10-30T00:55:19.800Z,3.13
2022-10-30T00:57:48.241Z,2.20
2022-10-30T01:00:15.976Z,2.45
2022-10-30T01:02:44.024Z,2.38
2022-10-30T01:05:15.732Z,2.08
2022-10-30T01:07:42.568Z,2.95
2022-10-30T01:10:11.439Z,2.70
2022-10-30T01:12:39.205Z,2.20
2022-10-30T01:15:07.251Z,2.30
2022-10-30T01:18:13.367Z,1.83
2022-10-30T01:21:13.151Z,2.40
2022-10-30T01:24:07.681Z,1.70
2022-10-30T01:26:43.896Z,2.10
2022-10-30T01:29:32.530Z,2.38
2022-10-30T01:32:11.804Z,2.33
2022-10-30T01:34:59.661Z,2.60
2022-10-30T01:38:03.414Z,2.08
2022-10-30T01:40:30.129Z,2.33
2022-10-30T01:42:58.423Z,2.25
2022-10-30T01:46:03.739Z,2.60
2022-10-30T01:49:01.315Z,2.17
2022-10-30T01:51:27.994Z,2.42
2022-10-30T01:54:23.481Z,2.22
2022-10-30T01:56:57.353Z,3.67
2022-10-30T01:59:27.535Z,2.60
2022-10-30T02:04:23.994Z,2.80
2022-10-30T02:06:52.455Z,3.13
2022-10-30T02:09:20.553Z,3.28
2022-10-30T02:11:51.498Z,2.88
2022-10-30T02:14:23.464Z,2.67
2022-10-30T02:16:53.069Z,3.10
2022-10-30T02:19:20.504Z,3.67
2022-10-30T02:21:47.834Z,2.85
2022-10-30T02:24:14.552Z,2.60
2022-10-30T02:26:41.276Z,2.85
2022-10-30T02:29:08.341Z,3.45
2022-10-30T02:31:35.660Z,2.58
2022-10-30T02:34:02.349Z,2.72
2022-10-30T02:36:29.024Z,2.83
2022-10-30T02:38:55.975Z,2.80
2022-10-30T02:41:23.634Z,3.22
2022-10-30T02:43:56.389Z,2.72
2022-10-30T02:46:23.053Z,3.35
2022-10-30T02:48:49.905Z,3.58
2022-10-30T02:51:16.947Z,2.92
2022-10-30T02:53:43.894Z,2.80
2022-10-30T02:56:13.445Z,2.75
2022-10-30T02:58:42.180Z,2.70
2022-10-30T03:01:17.769Z,2.63
2022-10-30T03:03:45.136Z,2.65
2022-10-30T03:06:15.629Z,2.88
2022-10-30T03:08:43.872Z,3.10
2022-10-30T03:11:18.623Z,3.38
2022-10-30T03:13:47.672Z,3.35
2022-10-30T03:16:23.785Z,3.08
2022-10-30T03:18:51.904Z,2.53
2022-10-30T03:21:21.030Z,3.20
2022-10-30T03:23:47.731Z,3.10
2022-10-30T03:26:14.365Z,3.72
2022-10-30T03:28:49.427Z,2.60
2022-10-30T03:31:18.471Z,3.50
2022-10-30T03:33:46.771Z,2.85
2022-10-30T03:36:14.532Z,2.58
2022-10-30T03:38:41.579Z,3.25
2022-10-30T03:41:09.280Z,2.80
2022-10-30T03:43:35.976Z,3.03
2022-10-30T03:46:03.631Z,2.90
2022-10-30T03:48:30.852Z,2.45
2022-10-30T03:50:59.905Z,3.15
2022-10-30T03:53:28.605Z,3.22
2022-10-30T03:56:01.060Z,3.17
2022-10-30T03:58:35.495Z,3.20
2022-10-30T04:01:07.616Z,3.17
2022-10-30T04:03:38.443Z,3.30
2022-10-30T04:06:06.955Z,3.15
2022-10-30T04:08:33.980Z,3.08
2022-10-30T04:11:01.943Z,3.10
2022-10-30T04:13:28.784Z,3.75
2022-10-30T04:15:58.203Z,3.85
2022-10-30T04:18:26.361Z,3.40
2022-10-30T04:20:54.681Z,4.63
2022-10-30T04:23:22.499Z,4.75
2022-10-30T04:25:49.275Z,3.67
2022-10-30T04:28:17.364Z,3.88
2022-10-30T04:30:45.840Z,3.80
2022-10-30T04:33:14.633Z,4.00
2022-10-30T04:35:41.693Z,3.72
2022-10-30T04:38:20.228Z,3.85
2022-10-30T04:40:48.124Z,3.10
2022-10-30T04:43:15.589Z,3.13
2022-10-30T04:45:45.896Z,3.17
2022-10-30T04:48:18.131Z,2.67
2022-10-30T04:50:46.823Z,3.72
2022-10-30T04:53:21.301Z,4.68
2022-10-30T04:55:55.540Z,7.45
2022-10-30T04:58:22.612Z,5.90
2022-10-30T05:01:04.026Z,6.70
2022-10-30T05:03:31.454Z,6.60
2022-10-30T05:06:02.658Z,5.18
2022-10-30T05:08:29.646Z,4.60
2022-10-30T05:10:58.268Z,5.00
2022-10-30T05:13:24.994Z,4.90
2022-10-30T05:15:54.071Z,5.10
2022-10-30T05:18:21.029Z,4.70
2022-10-30T05:20:47.993Z,5.00
2022-10-30T05:23:14.618Z,4.30
2022-10-30T05:25:41.796Z,4.70
2022-10-30T05:28:11.289Z,4.18
2022-10-30T05:30:44.902Z,4.38
2022-10-30T05:33:24.148Z,4.15
2022-10-30T05:35:50.867Z,4.25
2022-10-30T05:38:17.665Z,5.63
2022-10-30T05:40:47.021Z,4.40
2022-10-30T05:43:13.682Z,3.55
2022-10-30T05:45:40.400Z,3.30
2022-10-30T05:48:07.955Z,3.33
2022-10-30T05:50:41.983Z,4.10
2022-10-30T05:53:18.740Z,2.95
2022-10-30T05:55:45.528Z,3.15
2022-10-30T05:58:18.734Z,3.28
2022-10-30T06:00:46.413Z,3.08
2022-10-30T06:05:47.040Z,3.10
2022-10-30T06:08:17.878Z,3.13
2022-10-30T06:10:46.310Z,2.15
2022-10-30T06:13:15.906Z,2.50
2022-10-30T06:16:01.923Z,2.97
2022-10-30T06:18:46.067Z,2.47
2022-10-30T06:21:13.362Z,2.95
2022-10-30T06:23:51.166Z,3.92
2022-10-30T06:26:37.943Z,3.00
2022-10-30T06:29:09.265Z,3.53
2022-10-30T06:31:36.080Z,2.95
2022-10-30T06:34:03.621Z,2.80
2022-10-30T06:36:32.728Z,2.85
2022-10-30T06:38:59.600Z,3.47
2022-10-30T06:41:33.886Z,3.45
2022-10-30T06:44:28.547Z,3.55
2022-10-30T06:46:55.251Z,3.88
2022-10-30T06:49:22.288Z,3.72
2022-10-30T06:51:50.923Z,4.80
2022-10-30T06:54:17.618Z,3.88
2022-10-30T06:57:14.507Z,4.05
2022-10-30T07:00:19.648Z,4.35
2022-10-30T07:03:11.435Z,3.70
2022-10-30T07:05:39.140Z,3.60
2022-10-30T07:08:05.842Z,4.03
2022-10-30T07:10:32.990Z,3.05
2022-10-30T07:13:18.211Z,3.38
2022-10-30T07:16:14.368Z,3.20
2022-10-30T07:18:44.760Z,3.03
2022-10-30T07:21:11.443Z,3.72
2022-10-30T07:23:38.393Z,3.40
2022-10-30T07:26:23.537Z,3.25
2022-10-30T07:28:52.283Z,3.65
2022-10-30T07:31:34.759Z,3.50
2022-10-30T07:34:26.189Z,3.03
2022-10-30T07:37:11.508Z,2.88
2022-10-30T07:40:01.250Z,3.15
2022-10-30T07:42:46.757Z,2.17
2022-10-30T07:45:36.699Z,2.60
2022-10-30T07:48:23.399Z,2.70
2022-10-30T07:51:02.238Z,2.58
2022-10-30T07:53:29.977Z,1.98
2022-10-30T07:55:58.047Z,2.10
2022-10-30T07:58:45.711Z,2.05
2022-10-30T08:01:35.468Z,1.80
2022-10-30T08:04:17.940Z,2.20
2022-10-30T08:06:44.638Z,1.80
2022-10-30T08:09:11.883Z,2.00
2022-10-30T08:11:39.515Z,2.45
2022-10-30T08:14:06.824Z,1.77
2022-10-30T08:16:33.443Z,1.65
2022-10-30T08:19:00.458Z,2.65
2022-10-30T08:21:27.662Z,1.45
2022-10-30T08:23:58.477Z,1.80
2022-10-30T08:26:28.112Z,2.42
2022-10-30T08:28:54.835Z,1.60
2022-10-30T08:31:23.012Z,2.05
2022-10-30T08:34:12.737Z,1.90
2022-10-30T08:37:07.923Z,1.70
2022-10-30T08:39:35.220Z,1.90
2022-10-30T08:42:28.034Z,1.85
2022-10-30T08:44:58.250Z,1.48
2022-10-30T08:47:36.994Z,1.88
2022-10-30T08:50:03.930Z,1.73
2022-10-30T08:52:32.111Z,2.17
2022-10-30T08:54:58.817Z,2.40
2022-10-30T08:57:27.653Z,2.85
2022-10-30T08:59:56.541Z,2.15
2022-10-30T09:02:46.326Z,2.47
2022-10-30T09:05:37.396Z,2.58
2022-10-30T09:08:29.776Z,2.58
2022-10-30T09:11:07.589Z,2.25
2022-10-30T09:13:34.423Z,2.65
2022-10-30T09:16:03.363Z,2.45
2022-10-30T09:18:32.906Z,2.28
2022-10-30T09:21:03.201Z,2.63
2022-10-30T09:23:35.188Z,2.90
2022-10-30T09:26:29.429Z,2.80
2022-10-30T09:31:54.758Z,2.20
2022-10-30T09:34:23.952Z,2.15
2022-10-30T09:36:57.626Z,2.25
2022-10-30T09:39:25.537Z,2.30
2022-10-30T09:42:11.156Z,2.55
2022-10-30T09:45:23.075Z,2.10
2022-10-30T09:48:03.583Z,2.08
2022-10-30T09:50:54.761Z,2.20
2022-10-30T09:53:30.567Z,1.77
2022-10-30T09:56:12.448Z,2.60
2022-10-30T09:58:45.414Z,2.45
2022-10-30T10:01:27.413Z,2.55
2022-10-30T10:04:27.653Z,2.20
2022-10-30T10:07:24.000Z,2.47
2022-10-30T10:10:19.680Z,2.38
2022-10-30T10:13:03.794Z,2.00
2022-10-30T10:15:51.809Z,2.47
2022-10-30T10:18:24.996Z,2.83
2022-10-30T10:20:55.924Z,3.20
2022-10-30T10:23:50.759Z,2.97
2022-10-30T10:26:28.949Z,3.08
2022-10-30T10:29:09.460Z,2.38
2022-10-30T10:31:48.302Z,2.88
2022-10-30T10:34:35.120Z,2.80
2022-10-30T10:37:23.609Z,3.10
2022-10-30T10:40:09.062Z,2.63
2022-10-30T10:43:08.685Z,2.47
2022-10-30T10:46:10.686Z,2.42
2022-10-30T10:51:22.303Z,3.42
2022-10-30T10:53:57.307Z,3.50
2022-10-30T10:56:31.898Z,3.40
2022-10-30T10:59:03.477Z,3.15
2022-10-30T11:01:42.898Z,2.33
2022-10-30T11:04:19.093Z,2.47
2022-10-30T11:06:51.951Z,2.88
2022-10-30T11:09:21.579Z,2.70
2022-10-30T11:11:53.326Z,2.90
2022-10-30T11:14:23.899Z,2.40
2022-10-30T11:16:50.470Z,2.63
2022-10-30T11:19:17.198Z,2.33
2022-10-30T11:21:51.625Z,3.38
2022-10-30T11:24:30.590Z,2.63
2022-10-30T11:26:59.991Z,2.60
2022-10-30T11:29:30.014Z,2.58
2022-10-30T11:32:05.058Z,2.40
2022-10-30T11:34:38.790Z,2.38
2022-10-30T11:37:05.565Z,2.15
2022-10-30T11:39:35.704Z,2.63
2022-10-30T11:42:02.355Z,2.58
2022-10-30T11:44:37.095Z,2.53
2022-10-30T11:47:05.060Z,2.28
2022-10-30T11:49:38.183Z,2.22
2022-10-30T11:52:06.956Z,2.70
2022-10-30T11:54:39.083Z,2.55
2022-10-30T11:57:23.205Z,2.67
2022-10-30T11:59:53.695Z,2.15
2022-10-30T12:02:28.196Z,2.83
2022-10-30T12:05:02.046Z,2.08
2022-10-30T12:07:34.805Z,2.15
2022-10-30T12:10:03.144Z,1.80
2022-10-30T12:12:36.286Z,2.20
2022-10-30T12:15:11.063Z,2.20
2022-10-30T12:17:38.750Z,2.00
2022-10-30T12:20:06.528Z,2.00
2022-10-30T12:22:34.969Z,1.65
2022-10-30T12:25:15.577Z,2.15
2022-10-30T12:27:42.379Z,2.03
2022-10-30T12:30:17.564Z,2.28
2022-10-30T12:32:50.362Z,1.92
2022-10-30T12:35:23.167Z,1.95
2022-10-30T12:37:54.142Z,2.38
2022-10-30T12:40:28.279Z,2.03
2022-10-30T12:43:11.398Z,1.85
2022-10-30T12:45:43.510Z,1.70
2022-10-30T12:48:13.131Z,2.03
2022-10-30T12:51:02.509Z,1.70
2022-10-30T12:54:16.637Z,2.03
2022-10-30T12:56:48.112Z,1.75
2022-10-30T12:59:38.935Z,3.00
2022-10-30T13:02:33.003Z,1.90
2022-10-30T13:05:14.238Z,4.60
2022-10-30T13:07:47.800Z,3.40
2022-10-30T13:10:44.437Z,3.00
2022-10-30T13:13:18.674Z,1.88
2022-10-30T13:15:58.247Z,1.80
2022-10-30T13:18:32.558Z,1.90
2022-10-30T13:21:18.059Z,1.98
2022-10-30T13:23:53.053Z,1.83
2022-10-30T13:26:38.535Z,2.38
2022-10-30T13:29:29.344Z,2.47
2022-10-30T13:32:05.017Z,1.92
2022-10-30T13:34:40.873Z,2.38
2022-10-30T13:37:35.248Z,2.70
2022-10-30T13:40:17.435Z,3.88
2022-10-30T13:43:15.764Z,2.25
2022-10-30T13:45:54.752Z,4.82
2022-10-30T13:48:33.502Z,3.88
2022-10-30T13:51:19.004Z,2.60
2022-10-30T13:53:49.861Z,1.85
2022-10-30T13:56:19.265Z,2.47
2022-10-30T13:59:15.924Z,8.98
2022-10-30T14:02:15.105Z,6.18
2022-10-30T14:04:53.868Z,3.00
2022-10-30T14:07:42.921Z,2.47
2022-10-30T14:10:16.066Z,2.20
2022-10-30T14:12:52.289Z,1.95
2022-10-30T14:15:31.065Z,2.28
2022-10-30T14:18:13.153Z,2.08
2022-10-30T14:20:49.346Z,1.63
2022-10-30T14:23:38.285Z,1.80
2022-10-30T14:26:11.027Z,2.22
2022-10-30T14:28:40.737Z,1.60
2022-10-30T14:31:13.634Z,2.33
2022-10-30T14:33:40.219Z,2.05
2022-10-30T14:36:15.099Z,2.15
2022-10-30T14:38:42.339Z,2.25
2022-10-30T14:41:24.442Z,2.13
2022-10-30T14:44:21.577Z,2.00
2022-10-30T14:47:06.715Z,2.15
2022-10-30T14:49:49.925Z,2.05
2022-10-30T14:52:58.225Z,2.42
2022-10-30T14:55:33.790Z,2.05
2022-10-30T14:58:03.460Z,2.17
2022-10-30T15:00:37.980Z,2.60
2022-10-30T15:03:11.546Z,2.22
2022-10-30T15:05:47.302Z,2.10
2022-10-30T15:08:56.887Z,2.28
2022-10-30T15:11:50.069Z,2.05
2022-10-30T15:14:40.483Z,2.10
2022-10-30T15:17:36.982Z,2.67
2022-10-30T15:20:14.096Z,2.58
2022-10-30T15:22:41.487Z,1.98
2022-10-30T15:25:23.221Z,2.47
2022-10-30T15:27:57.207Z,2.85
2022-10-30T15:30:26.620Z,2.45
2022-10-30T15:32:53.862Z,2.95
2022-10-30T15:35:23.387Z,2.65
2022-10-30T15:38:00.254Z,2.63
2022-10-30T15:40:28.553Z,2.90
2022-10-30T15:42:56.533Z,2.78
2022-10-30T15:45:33.878Z,2.70
2022-10-30T15:48:04.338Z,2.42
2022-10-30T15:50:32.571Z,3.08
2022-10-30T15:52:59.902Z,2.17
2022-10-30T15:55:32.479Z,2.72
2022-10-30T15:58:04.769Z,2.30
2022-10-30T16:00:40.234Z,2.15
2022-10-30T16:03:10.792Z,2.17
2022-10-30T16:05:37.597Z,3.05
2022-10-30T16:08:14.300Z,4.07
2022-10-30T16:10:43.393Z,3.38
2022-10-30T16:13:18.918Z,3.75
2022-10-30T16:15:47.586Z,3.13
2022-10-30T16:18:21.305Z,3.25
2022-10-30T16:20:54.950Z,3.28
2022-10-30T16:23:22.664Z,3.60
2022-10-30T16:25:55.552Z,3.28
2022-10-30T16:28:29.525Z,3.65
2022-10-30T16:31:05.823Z,3.35
2022-10-30T16:33:35.462Z,3.97
2022-10-30T16:36:07.200Z,3.67
2022-10-30T16:38:39.148Z,3.40
2022-10-30T16:43:35.548Z,4.38
2022-10-30T16:46:14.329Z,5.07
2022-10-30T16:48:48.472Z,19.23
2022-10-30T16:51:17.886Z,20.10
2022-10-30T16:53:48.835Z,22.58
2022-10-30T16:56:28.014Z,15.82
2022-10-30T16:59:05.356Z,12.93
2022-10-30T17:01:32.709Z,11.75
2022-10-30T17:04:00.455Z,12.02
2022-10-30T17:06:36.165Z,8.65
2022-10-30T17:09:08.584Z,7.35
2022-10-30T17:11:37.468Z,6.45
2022-10-30T17:14:15.989Z,6.00
2022-10-30T17:16:52.406Z,5.28
2022-10-30T17:19:31.192Z,4.95
2022-10-30T17:22:04.701Z,5.30
2022-10-30T17:24:35.090Z,4.88
2022-10-30T17:27:04.141Z,4.70
2022-10-30T17:29:44.797Z,5.40
2022-10-30T17:32:20.489Z,5.60
2022-10-30T17:34:48.019Z,5.45
2022-10-30T17:37:14.761Z,5.38
2022-10-30T17:39:41.464Z,5.90
2022-10-30T17:42:10.160Z,5.82
2022-10-30T17:44:37.159Z,5.38
2022-10-30T17:47:16.849Z,4.80
2022-10-30T17:49:44.035Z,4.82
2022-10-30T17:52:15.187Z,5.40
2022-10-30T17:54:42.880Z,4.80
2022-10-30T17:57:11.725Z,4.80
2022-10-30T17:59:39.369Z,5.57
2022-10-30T18:02:17.376Z,4.53
2022-10-30T18:04:44.796Z,5.10
2022-10-30T18:07:12.597Z,5.43
2022-10-30T18:09:39.632Z,4.43
2022-10-30T18:12:08.285Z,4.88
2022-10-30T18:14:34.974Z,4.82
2022-10-30T18:17:01.790Z,4.45
2022-10-30T18:19:28.483Z,4.78
2022-10-30T18:21:55.195Z,5.72
2022-10-30T18:24:22.263Z,5.40
2022-10-30T18:26:48.882Z,5.82
2022-10-30T18:29:15.590Z,5.53
2022-10-30T18:31:42.274Z,5.30
2022-10-30T18:34:18.304Z,5.90
2022-10-30T18:36:45.197Z,6.07
2022-10-30T18:39:13.096Z,5.35
2022-10-30T18:41:45.026Z,5.57
2022-10-30T18:44:18.511Z,8.02
2022-10-30T18:46:45.966Z,11.70
2022-10-30T18:49:12.770Z,13.68
2022-10-30T18:51:39.686Z,15.23
2022-10-30T18:54:16.214Z,14.65
2022-10-30T18:56:42.904Z,7.50
2022-10-30T18:59:09.656Z,6.70
2022-10-30T19:01:36.599Z,8.10
2022-10-30T19:04:04.557Z,7.68
2022-10-30T19:06:34.326Z,8.10
2022-10-30T19:09:01.327Z,7.10
2022-10-30T19:11:30.815Z,6.10
2022-10-30T19:13:57.956Z,6.28
2022-10-30T19:16:25.546Z,6.45
2022-10-30T19:18:52.753Z,5.57
2022-10-30T19:21:21.877Z,6.18
2022-10-30T19:23:49.078Z,6.05
2022-10-30T19:26:17.359Z,6.97
2022-10-30T19:28:45.112Z,7.20
2022-10-30T19:31:17.164Z,7.03
2022-10-30T19:36:29.437Z,6.57
2022-10-30T19:38:56.673Z,6.70
2022-10-30T19:41:24.800Z,6.47
2022-10-30T19:43:52.788Z,6.10
2022-10-30T19:46:19.755Z,5.80
2022-10-30T19:49:01.847Z,6.35
2022-10-30T19:51:28.961Z,5.47
2022-10-30T19:53:55.987Z,6.38
2022-10-30T19:56:23.497Z,5.53
2022-10-30T19:58:50.380Z,5.28
2022-10-30T20:01:17.354Z,5.13
2022-10-30T20:03:44.289Z,6.28
2022-10-30T20:06:12.556Z,5.55
2022-10-30T20:08:39.738Z,5.00
2022-10-30T20:11:06.396Z,4.80
2022-10-30T20:13:33.550Z,4.50
2022-10-30T20:16:02.523Z,4.47
2022-10-30T20:18:31.675Z,5.07
2022-10-30T20:21:00.278Z,3.80
2022-10-30T20:23:27.852Z,4.00
2022-10-30T20:26:01.083Z,4.60
2022-10-30T20:28:31.619Z,4.07
2022-10-30T20:30:58.829Z,4.63
2022-10-30T20:33:26.054Z,4.80
2022-10-30T20:35:54.706Z,4.68
2022-10-30T20:38:26.697Z,5.15
2022-10-30T20:40:53.861Z,5.30
2022-10-30T20:43:24.989Z,5.38
2022-10-30T20:45:51.676Z,5.73
2022-10-30T20:48:18.336Z,5.18
2022-10-30T20:50:50.301Z,6.15
2022-10-30T20:53:17.401Z,6.50
2022-10-30T20:55:45.318Z,5.70
2022-10-30T20:58:12.435Z,5.75
2022-10-30T21:00:39.926Z,5.80
2022-10-30T21:03:07.437Z,6.18
2022-10-30T21:05:45.082Z,7.07
2022-10-30T21:08:13.916Z,6.10
2022-10-30T21:10:41.525Z,5.90
2022-10-30T21:13:09.866Z,6.03
2022-10-30T21:15:44.647Z,4.97
2022-10-30T21:18:13.117Z,4.75
2022-10-30T21:20:41.116Z,5.68
2022-10-30T21:23:08.517Z,4.35
2022-10-30T21:25:35.875Z,4.70
2022-10-30T21:28:03.074Z,5.03
2022-10-30T21:30:30.160Z,5.20
2022-10-30T21:32:58.876Z,4.43
2022-10-30T21:35:26.039Z,4.45
2022-10-30T21:37:52.673Z,3.92
2022-10-30T21:40:19.333Z,4.95
2022-10-30T21:42:49.164Z,4.85
2022-10-30T21:45:16.202Z,5.70
2022-10-30T21:47:42.879Z,5.50
2022-10-30T21:50:12.170Z,6.25
2022-10-30T21:52:40.160Z,5.97
2022-10-30T21:55:07.372Z,5.50
2022-10-30T21:57:34.241Z,4.82
2022-10-30T22:00:05.454Z,5.72
2022-10-30T22:02:34.730Z,5.25
2022-10-30T22:05:01.475Z,5.15
2022-10-30T22:07:28.263Z,5.05
2022-10-30T22:09:54.912Z,5.65
2022-10-30T22:12:21.560Z,5.68
2022-10-30T22:14:48.209Z,5.75
2022-10-30T22:17:14.864Z,5.07
2022-10-30T22:19:41.540Z,4.93
2022-10-30T22:22:09.166Z,4.68
2022-10-30T22:24:35.927Z,4.70
2022-10-30T22:27:02.671Z,4.63
2022-10-30T22:29:29.346Z,4.57
2022-10-30T22:31:56.044Z,5.50
2022-10-30T22:34:22.708Z,5.28
2022-10-30T22:36:49.332Z,5.63
2022-10-30T22:39:15.980Z,5.40
2022-10-30T22:41:42.725Z,5.50
2022-10-30T22:44:14.300Z,6.15
2022-10-30T22:46:41.028Z,4.85
2022-10-30T22:49:07.978Z,5.75
2022-10-30T22:51:37.005Z,5.40
2022-10-30T22:54:05.221Z,5.55
2022-10-30T22:56:34.247Z,5.60
2022-10-30T22:59:03.297Z,5.70
2022-10-30T23:01:31.920Z,5.45
2022-10-30T23:04:01.410Z,5.53
2022-10-30T23:06:29.957Z,5.88
2022-10-30T23:08:59.154Z,5.18
2022-10-30T23:11:26.470Z,5.13
2022-10-30T23:13:53.506Z,4.80
2022-10-30T23:16:22.780Z,4.22
2022-10-30T23:18:50.904Z,4.65
2022-10-30T23:21:20.424Z,4.47
2022-10-30T23:23:47.699Z,4.47
2022-10-30T23:26:17.236Z,4.15
2022-10-30T23:28:45.148Z,3.85
2022-10-30T23:31:25.226Z,3.20
2022-10-30T23:33:54.168Z,4.18
2022-10-30T23:36:21.336Z,3.55
2022-10-30T23:38:55.361Z,3.47
2022-10-30T23:41:23.182Z,3.95
2022-10-30T23:43:54.395Z,3.83
2022-10-30T23:46:21.201Z,3.90
2022-10-30T23:48:47.843Z,3.25
2022-10-30T23:51:14.525Z,3.72
2022-10-30T23:53:41.232Z,3.35
2022-10-30T23:56:08.064Z,3.60
2022-10-30T23:58:35.147Z,3.40
